createdAt,value
2022-10-16T00:03:17.454Z,98.99
2022-10-16T00:08:20.779Z,99.21
2022-10-16T00:13:22.767Z,98.99
2022-10-16T00:18:25.757Z,99.56
2022-10-16T00:23:28.840Z,99.31
2022-10-16T00:28:31.417Z,99.30
2022-10-16T00:33:33.228Z,98.90
2022-10-16T00:38:36.552Z,98.09
2022-10-16T00:43:41.693Z,97.45
2022-10-16T00:48:47.278Z,96.82
2022-10-16T00:53:50.798Z,96.14
2022-10-16T00:58:53.304Z,95.74
2022-10-16T01:03:55.582Z,95.50
2022-10-16T01:09:14.378Z,95.31
2022-10-16T01:14:22.969Z,95.81
2022-10-16T01:19:39.866Z,95.75
2022-10-16T01:29:54.620Z,96.85
2022-10-16T01:35:01.549Z,97.22
2022-10-16T01:40:10.662Z,97.21
2022-10-16T01:45:17.684Z,97.75
2022-10-16T01:50:21.774Z,97.28
2022-10-16T01:55:28.242Z,97.37
2022-10-16T02:00:32.876Z,97.48
2022-10-16T02:05:41.891Z,97.44
2022-10-16T02:10:44.009Z,97.15
2022-10-16T02:15:47.541Z,97.40
2022-10-16T02:20:53.891Z,96.89
2022-10-16T02:25:59.098Z,97.00
2022-10-16T02:31:06.159Z,96.45
2022-10-16T02:36:08.957Z,96.81
2022-10-16T02:41:11.133Z,96.94
2022-10-16T02:46:14.555Z,97.58
2022-10-16T02:51:16.613Z,98.12
2022-10-16T03:01:23.569Z,98.18
2022-10-16T03:06:25.647Z,98.71
2022-10-16T03:11:27.635Z,98.93
2022-10-16T03:16:31.076Z,99.10
2022-10-16T03:21:33.064Z,99.63
2022-10-16T03:26:35.119Z,100.00
2022-10-16T03:31:38.478Z,99.98
2022-10-16T03:36:40.790Z,100.00
2022-10-16T03:41:43.078Z,100.00
2022-10-16T03:46:46.382Z,100.00
2022-10-16T03:51:48.446Z,100.00
2022-10-16T03:56:50.440Z,100.00
2022-10-16T04:01:53.983Z,100.00
2022-10-16T04:06:55.636Z,100.00
2022-10-16T04:11:57.614Z,100.00
2022-10-16T04:17:00.993Z,100.00
2022-10-16T04:22:02.853Z,100.00
2022-10-16T04:27:05.053Z,100.00
2022-10-16T04:32:09.363Z,100.00
2022-10-16T04:37:11.242Z,100.00
2022-10-16T04:42:12.916Z,100.00
2022-10-16T04:47:16.683Z,100.00
2022-10-16T04:52:18.791Z,100.00
2022-10-16T04:57:21.065Z,100.00
2022-10-16T05:02:24.303Z,100.00
2022-10-16T05:07:26.564Z,100.00
2022-10-16T05:12:28.753Z,100.00
2022-10-16T05:17:31.793Z,100.00
2022-10-16T05:22:33.508Z,100.00
2022-10-16T05:27:35.567Z,100.00
2022-10-16T05:32:38.637Z,100.00
2022-10-16T05:37:40.573Z,100.00
2022-10-16T05:42:42.730Z,100.00
2022-10-16T05:47:46.652Z,100.00
2022-10-16T05:52:48.703Z,100.00
2022-10-16T05:57:50.431Z,100.00
2022-10-16T06:02:54.576Z,100.00
2022-10-16T06:07:56.900Z,100.00
2022-10-16T06:12:58.745Z,100.00
2022-10-16T06:18:02.254Z,100.00
2022-10-16T06:23:04.286Z,100.00
2022-10-16T06:28:06.181Z,100.00
2022-10-16T06:33:09.757Z,100.00
2022-10-16T06:38:11.441Z,100.00
2022-10-16T06:43:13.501Z,100.00
2022-10-16T06:48:16.530Z,100.00
2022-10-16T06:53:18.324Z,100.00
2022-10-16T06:58:21.985Z,99.64
2022-10-16T07:03:27.454Z,99.55
2022-10-16T07:08:33.365Z,97.34
2022-10-16T07:13:37.597Z,96.12
2022-10-16T07:18:42.333Z,94.19
2022-10-16T07:23:45.326Z,90.06
2022-10-16T07:28:49.034Z,88.44
2022-10-16T07:33:52.913Z,88.36
2022-10-16T07:38:58.840Z,89.43
2022-10-16T07:44:06.230Z,89.35
2022-10-16T07:49:13.813Z,89.52
2022-10-16T07:54:17.695Z,90.28
2022-10-16T07:59:24.352Z,90.45
2022-10-16T08:04:31.972Z,90.48
2022-10-16T08:09:34.599Z,89.86
2022-10-16T08:14:36.870Z,88.51
2022-10-16T08:19:40.272Z,85.34
2022-10-16T08:24:42.193Z,83.63
2022-10-16T08:29:44.004Z,82.64
2022-10-16T08:34:47.395Z,83.24
2022-10-16T08:39:49.395Z,82.54
2022-10-16T08:45:08.284Z,82.03
2022-10-16T08:50:14.123Z,81.74
2022-10-16T08:55:32.462Z,81.13
2022-10-16T09:00:34.922Z,79.49
2022-10-16T09:05:53.753Z,80.52
2022-10-16T09:10:59.768Z,80.04
2022-10-16T09:16:16.317Z,77.63
2022-10-16T09:21:23.156Z,76.39
2022-10-16T09:26:25.127Z,74.04
2022-10-16T09:31:27.294Z,71.86
2022-10-16T09:36:41.194Z,72.66
2022-10-16T09:41:44.546Z,71.57
2022-10-16T09:46:46.370Z,71.02
2022-10-16T09:51:49.571Z,71.21
2022-10-16T09:56:51.216Z,57.92
2022-10-16T10:01:55.145Z,57.30
2022-10-16T10:06:59.565Z,51.89
2022-10-16T10:17:15.860Z,46.71
2022-10-16T10:22:44.107Z,55.78
2022-10-16T10:28:01.304Z,60.48
2022-10-16T10:33:20.328Z,61.43
2022-10-16T10:38:32.431Z,59.56
2022-10-16T10:43:48.899Z,52.38
2022-10-16T10:49:08.643Z,47.79
2022-10-16T10:54:21.750Z,48.37
2022-10-16T10:59:49.881Z,54.83
2022-10-16T11:05:16.040Z,54.24
2022-10-16T11:10:23.881Z,47.21
2022-10-16T11:15:30.117Z,50.00
2022-10-16T11:20:35.492Z,52.01
2022-10-16T11:25:40.956Z,54.52
2022-10-16T11:30:46.920Z,54.35
2022-10-16T11:35:54.136Z,54.34
2022-10-16T11:41:02.239Z,52.24
2022-10-16T11:46:10.195Z,52.09
2022-10-16T11:51:17.389Z,50.95
2022-10-16T11:56:22.910Z,50.20
2022-10-16T12:01:33.266Z,50.64
2022-10-16T12:06:38.414Z,50.77
2022-10-16T12:11:41.888Z,51.58
2022-10-16T12:16:53.247Z,51.74
2022-10-16T12:21:58.328Z,52.02
2022-10-16T12:27:02.628Z,53.21
2022-10-16T12:32:06.563Z,51.67
2022-10-16T12:37:12.290Z,53.84
2022-10-16T12:42:33.924Z,51.13
2022-10-16T12:47:49.328Z,50.04
2022-10-16T12:52:51.407Z,52.85
2022-10-16T12:58:32.457Z,51.86
2022-10-16T13:04:05.809Z,51.40
2022-10-16T13:09:19.146Z,50.71
2022-10-16T13:19:58.117Z,52.88
2022-10-16T13:25:14.843Z,53.48
2022-10-16T13:30:21.487Z,52.54
2022-10-16T13:35:25.520Z,53.25
2022-10-16T13:40:27.489Z,54.32
2022-10-16T13:45:31.238Z,55.37
2022-10-16T13:50:33.997Z,55.73
2022-10-16T13:55:39.810Z,55.14
2022-10-16T14:00:55.010Z,54.48
2022-10-16T14:06:01.982Z,53.74
2022-10-16T14:11:03.714Z,52.29
2022-10-16T14:16:16.287Z,52.58
2022-10-16T14:21:20.391Z,53.40
2022-10-16T14:26:25.363Z,53.35
2022-10-16T14:31:31.971Z,53.16
2022-10-16T14:36:35.426Z,52.67
2022-10-16T14:41:45.399Z,52.34
2022-10-16T14:46:49.067Z,52.91
2022-10-16T14:51:51.160Z,52.51
2022-10-16T14:56:55.907Z,53.49
2022-10-16T15:01:59.506Z,52.92
2022-10-16T15:07:01.636Z,53.87
2022-10-16T15:12:04.134Z,53.58
2022-10-16T15:17:10.163Z,53.92
2022-10-16T15:22:12.713Z,55.39
2022-10-16T15:27:14.634Z,56.37
2022-10-16T15:32:18.227Z,56.46
2022-10-16T15:37:20.012Z,56.85
2022-10-16T15:42:22.110Z,57.51
2022-10-16T15:47:26.180Z,58.03
2022-10-16T15:52:28.307Z,58.45
2022-10-16T15:57:30.321Z,58.79
2022-10-16T16:02:33.836Z,59.60
2022-10-16T16:07:35.978Z,63.83
2022-10-16T16:12:38.881Z,65.98
2022-10-16T16:17:42.364Z,67.09
2022-10-16T16:22:44.299Z,68.92
2022-10-16T16:27:46.076Z,70.99
2022-10-16T16:32:49.529Z,72.58
2022-10-16T16:37:51.644Z,74.39
2022-10-16T16:42:53.318Z,75.39
2022-10-16T16:47:56.803Z,78.02
2022-10-16T16:52:58.538Z,79.03
2022-10-16T16:58:00.545Z,79.88
2022-10-16T17:03:04.044Z,81.08
2022-10-16T17:08:07.967Z,81.53
2022-10-16T17:13:09.750Z,82.41
2022-10-16T17:18:13.393Z,82.96
2022-10-16T17:23:16.171Z,84.31
2022-10-16T17:28:18.390Z,85.37
2022-10-16T17:33:21.447Z,85.63
2022-10-16T17:38:23.136Z,86.38
2022-10-16T17:43:24.917Z,86.99
2022-10-16T17:48:27.981Z,87.07
2022-10-16T17:53:30.119Z,88.44
2022-10-16T17:58:32.324Z,88.99
2022-10-16T18:03:35.370Z,89.11
2022-10-16T18:08:37.696Z,89.16
2022-10-16T18:13:39.633Z,89.66
2022-10-16T18:18:44.863Z,90.08
2022-10-16T18:23:51.714Z,90.25
2022-10-16T18:28:55.878Z,90.93
2022-10-16T18:34:00.079Z,90.90
2022-10-16T18:39:04.540Z,91.20
2022-10-16T18:44:08.006Z,91.17
2022-10-16T18:49:12.032Z,91.52
2022-10-16T18:54:14.800Z,91.66
2022-10-16T18:59:17.515Z,92.30
2022-10-16T19:04:21.092Z,92.53
2022-10-16T19:09:24.146Z,92.99
2022-10-16T19:14:26.664Z,93.77
2022-10-16T19:19:30.236Z,93.71
2022-10-16T19:24:32.204Z,93.83
2022-10-16T19:29:34.015Z,93.98
2022-10-16T19:34:37.448Z,94.05
2022-10-16T19:39:39.341Z,94.15
2022-10-16T19:44:41.401Z,93.72
2022-10-16T19:49:45.024Z,92.98
2022-10-16T19:54:46.646Z,93.33
2022-10-16T19:59:51.669Z,93.67
2022-10-16T20:04:55.114Z,93.31
2022-10-16T20:09:56.945Z,93.14
2022-10-16T20:14:58.607Z,93.99
2022-10-16T20:20:02.227Z,93.83
2022-10-16T20:25:08.451Z,93.63
2022-10-16T20:30:12.414Z,94.07
2022-10-16T20:35:15.794Z,94.66
2022-10-16T20:40:17.468Z,94.45
2022-10-16T20:45:19.223Z,94.62
2022-10-16T20:50:22.714Z,94.92
2022-10-16T20:55:25.018Z,95.00
2022-10-16T21:00:27.283Z,94.71
2022-10-16T21:05:30.707Z,93.83
2022-10-16T21:10:32.844Z,93.95
2022-10-16T21:15:34.865Z,94.31
2022-10-16T21:20:42.453Z,94.21
2022-10-16T21:25:49.037Z,94.04
2022-10-16T21:30:51.001Z,93.76
2022-10-16T21:35:55.177Z,94.34
2022-10-16T21:40:57.509Z,94.66
2022-10-16T21:45:59.469Z,94.93
2022-10-16T21:51:02.898Z,95.17
2022-10-16T21:56:05.458Z,95.48
2022-10-16T22:01:08.128Z,95.73
2022-10-16T22:06:13.546Z,95.25
2022-10-16T22:11:22.060Z,94.89
2022-10-16T22:16:26.837Z,95.40
2022-10-16T22:21:30.326Z,95.63
2022-10-16T22:26:32.329Z,96.18
2022-10-16T22:31:34.796Z,96.13
2022-10-16T22:36:37.836Z,95.99
2022-10-16T22:41:39.921Z,95.73
2022-10-16T22:46:42.204Z,96.17
2022-10-16T22:51:45.276Z,96.01
2022-10-16T22:56:47.496Z,96.24
2022-10-16T23:01:49.663Z,96.00
2022-10-16T23:06:53.076Z,95.44
2022-10-16T23:11:55.088Z,95.81
2022-10-16T23:16:56.894Z,95.71
2022-10-16T23:22:00.504Z,95.60
2022-10-16T23:27:02.258Z,95.41
2022-10-16T23:32:04.534Z,95.43
2022-10-16T23:37:08.043Z,95.49
2022-10-16T23:42:10.089Z,94.77
2022-10-16T23:47:11.787Z,94.86
2022-10-16T23:52:15.271Z,95.02
2022-10-16T23:57:17.334Z,94.99
